KGDJ

Details ICAO KGDJ
Name GRANBURY MUNI
Region United States
Timezone America/Chicago (UTC-6.0)
Plans Departing 6
Arriving 6
Stats Elevation 778 ft / 237 m (AMSL)
Location 32.444418° -97.816933°
Runways 1
Magnetic Variation 3.885° E
Sunrise 2018-01-24 13:31:17 UTC / 2018-01-24 07:31:17 Local
Sunset 2018-01-24 23:57:47 UTC / 2018-01-24 17:57:47 Local
Advertisement - Login to hide

Runways

ID Width Length Bearing (true) Bearing (mag) Surface Threshold Offset Overrun Length
14 60 ft / 18 m 3,610 ft / 1,100 m 149.78° 145.89° Asphalt 0 ft / 0 m 0 ft / 0 m
32 60 ft / 18 m 3,610 ft / 1,100 m 329.78° 325.89° Asphalt 0 ft / 0 m 0 ft / 0 m

Map

Weather


0- 5 10 15 20 25 30 35+ Temperature / ° C

Clouds and Precipitation
Forecast for 2018-01-24 12:00 UTC. Updated 15 minutes ago

Ground ~20,000 ft ~40,000 ft Winds

METAR

KGDJ 240735Z AUTO 30003KT 10SM CLR M02/M06 A3040 RMK AO2 T10211065

TAF

Not found

Frequencies

Recorded 118.92 MHz AWOS 3
Unicom 123.00 MHz CTAF/UNICOM
Warning: Do not use this data for real-world aviation or navigation. No guarantee of current accuracy is given.